createdAt,value
2018-08-02T00:00:42.721Z,6.67
2018-08-02T00:03:19.078Z,6.90
2018-08-02T00:05:55.775Z,6.37
2018-08-02T00:08:30.696Z,6.97
2018-08-02T00:11:08.072Z,8.33
2018-08-02T00:13:45.341Z,7.67
2018-08-02T00:16:22.249Z,7.17
2018-08-02T00:25:10.175Z,8.50
2018-08-02T00:27:44.276Z,8.73
2018-08-02T00:30:22.767Z,8.60
2018-08-02T00:32:58.478Z,8.80
2018-08-02T00:35:32.773Z,8.70
2018-08-02T00:38:08.024Z,7.87
2018-08-02T00:40:43.183Z,7.37
2018-08-02T00:43:17.891Z,7.83
2018-08-02T00:45:54.161Z,7.87
2018-08-02T00:48:29.375Z,7.70
2018-08-02T00:51:04.548Z,8.10
2018-08-02T00:53:38.959Z,7.67
2018-08-02T00:56:14.720Z,8.70
2018-08-02T00:58:49.240Z,9.30
2018-08-02T01:01:24.761Z,11.00
2018-08-02T01:04:00.808Z,13.23
2018-08-02T01:06:35.055Z,11.27
2018-08-02T01:09:11.208Z,13.60
2018-08-02T01:11:45.999Z,12.17
2018-08-02T01:14:20.468Z,11.37
2018-08-02T01:16:56.418Z,9.70
2018-08-02T01:19:32.448Z,7.47
2018-08-02T01:22:06.681Z,8.33
2018-08-02T01:24:43.148Z,7.17
2018-08-02T01:27:19.578Z,8.37
2018-08-02T01:29:55.212Z,9.13
2018-08-02T01:32:30.341Z,8.43
2018-08-02T01:35:05.313Z,8.50
2018-08-02T01:37:39.611Z,8.67
2018-08-02T01:40:14.158Z,7.80
2018-08-02T01:42:48.375Z,7.80
2018-08-02T01:45:24.550Z,7.03
2018-08-02T01:47:58.742Z,7.37
2018-08-02T01:50:33.727Z,7.87
2018-08-02T01:53:08.014Z,7.63
2018-08-02T01:55:42.529Z,7.30
2018-08-02T01:58:17.203Z,6.17
2018-08-02T02:00:51.305Z,7.07
2018-08-02T02:03:33.892Z,6.90
2018-08-02T02:06:08.328Z,6.10
2018-08-02T02:08:43.135Z,6.60
2018-08-02T02:11:17.454Z,6.40
2018-08-02T02:13:52.147Z,6.70
2018-08-02T02:16:34.025Z,6.33
2018-08-02T02:19:08.290Z,7.13
2018-08-02T02:21:43.397Z,7.10
2018-08-02T02:24:18.301Z,6.37
2018-08-02T02:26:53.877Z,6.73
2018-08-02T02:29:28.588Z,6.03
2018-08-02T02:32:03.404Z,7.77
2018-08-02T02:34:38.297Z,5.93
2018-08-02T02:37:13.638Z,6.80
2018-08-02T02:39:51.525Z,7.17
2018-08-02T02:42:29.325Z,6.10
2018-08-02T02:45:04.360Z,6.10
2018-08-02T02:47:41.260Z,6.60
2018-08-02T02:50:17.137Z,5.87
2018-08-02T02:52:52.072Z,6.23
2018-08-02T02:55:26.437Z,5.67
2018-08-02T02:58:03.275Z,6.23
2018-08-02T03:00:38.451Z,5.60
2018-08-02T03:03:13.378Z,6.17
2018-08-02T03:05:49.000Z,5.67
2018-08-02T03:08:24.628Z,5.80
2018-08-02T03:10:58.772Z,6.80
2018-08-02T03:13:33.048Z,5.50
2018-08-02T03:16:09.257Z,5.70
2018-08-02T03:18:44.088Z,5.63
2018-08-02T03:21:18.262Z,6.03
2018-08-02T03:23:52.308Z,6.40
2018-08-02T03:26:28.060Z,5.27
2018-08-02T03:29:03.831Z,6.20
2018-08-02T03:31:43.939Z,5.90
2018-08-02T03:34:21.179Z,6.10
2018-08-02T03:36:55.405Z,6.70
2018-08-02T03:39:29.868Z,5.97
2018-08-02T03:42:04.848Z,5.43
2018-08-02T03:44:38.858Z,5.77
2018-08-02T03:47:14.684Z,5.23
2018-08-02T03:49:48.960Z,6.47
2018-08-02T03:52:23.256Z,6.40
2018-08-02T03:54:58.671Z,5.60
2018-08-02T03:57:32.779Z,6.30
2018-08-02T04:00:11.275Z,6.00
2018-08-02T04:02:46.263Z,5.80
2018-08-02T04:05:23.519Z,4.90
2018-08-02T04:07:59.372Z,6.70
2018-08-02T04:10:33.784Z,5.60
2018-08-02T04:13:10.743Z,5.43
2018-08-02T04:15:46.204Z,5.03
2018-08-02T04:18:21.644Z,4.90
2018-08-02T04:20:55.756Z,5.00
2018-08-02T04:23:32.577Z,5.40
2018-08-02T04:26:06.720Z,5.43
2018-08-02T04:31:42.058Z,4.70
2018-08-02T04:34:19.577Z,4.90
2018-08-02T04:36:54.019Z,5.50
2018-08-02T04:39:28.850Z,5.30
2018-08-02T04:42:11.347Z,4.97
2018-08-02T04:45:00.137Z,4.53
2018-08-02T04:50:51.789Z,4.70
2018-08-02T04:53:26.157Z,5.30
2018-08-02T04:56:01.500Z,5.00
2018-08-02T04:58:36.124Z,5.17
2018-08-02T05:01:10.455Z,5.10
2018-08-02T05:03:44.894Z,5.10
2018-08-02T05:06:39.959Z,4.60
2018-08-02T05:12:14.825Z,4.70
2018-08-02T05:14:49.624Z,5.00
2018-08-02T05:17:24.925Z,4.73
2018-08-02T05:20:00.004Z,5.00
2018-08-02T05:22:35.479Z,4.37
2018-08-02T05:25:10.469Z,4.53
2018-08-02T05:36:51.278Z,4.50
2018-08-02T05:39:30.498Z,4.07
2018-08-02T05:42:07.495Z,3.60
2018-08-02T05:44:41.953Z,4.73
2018-08-02T05:47:17.910Z,4.00
2018-08-02T05:49:53.009Z,4.33
2018-08-02T05:52:27.707Z,4.90
2018-08-02T05:55:07.250Z,4.40
2018-08-02T05:57:42.677Z,5.10
2018-08-02T06:00:17.812Z,5.00
2018-08-02T06:02:51.907Z,5.23
2018-08-02T06:05:27.406Z,4.00
2018-08-02T06:08:04.762Z,4.90
2018-08-02T06:10:46.517Z,5.00
2018-08-02T06:13:25.512Z,3.90
2018-08-02T06:16:00.883Z,5.07
2018-08-02T06:18:35.260Z,4.77
2018-08-02T06:21:10.804Z,4.03
2018-08-02T06:23:47.443Z,4.33
2018-08-02T06:26:23.336Z,4.47
2018-08-02T06:28:59.442Z,4.90
2018-08-02T06:31:36.866Z,4.60
2018-08-02T06:34:12.634Z,4.30
2018-08-02T06:36:46.961Z,4.60
2018-08-02T06:39:21.868Z,4.90
2018-08-02T06:41:57.058Z,5.40
2018-08-02T06:44:32.232Z,4.43
2018-08-02T06:47:07.919Z,5.00
2018-08-02T06:49:43.636Z,4.30
2018-08-02T06:52:17.815Z,4.17
2018-08-02T06:54:52.172Z,4.50
2018-08-02T06:57:26.326Z,4.77
2018-08-02T07:00:01.094Z,4.70
2018-08-02T07:02:35.398Z,4.80
2018-08-02T07:05:10.688Z,4.60
2018-08-02T07:07:45.177Z,4.80
2018-08-02T07:10:20.621Z,4.90
2018-08-02T07:12:54.892Z,4.60
2018-08-02T07:15:30.406Z,4.40
2018-08-02T07:18:04.531Z,4.67
2018-08-02T07:20:39.476Z,5.07
2018-08-02T07:23:14.588Z,4.80
2018-08-02T07:25:49.875Z,4.80
2018-08-02T07:28:24.099Z,4.87
2018-08-02T07:30:58.776Z,4.70
2018-08-02T07:33:33.677Z,5.30
2018-08-02T07:36:08.781Z,5.20
2018-08-02T07:38:43.025Z,6.00
2018-08-02T07:41:17.199Z,5.67
2018-08-02T07:43:51.507Z,4.63
2018-08-02T07:46:27.193Z,4.20
2018-08-02T07:49:02.051Z,4.83
2018-08-02T07:51:38.225Z,4.90
2018-08-02T07:54:12.910Z,4.63
2018-08-02T07:56:48.196Z,4.20
2018-08-02T07:59:25.286Z,4.63
2018-08-02T08:02:00.249Z,4.13
2018-08-02T08:04:35.691Z,4.67
2018-08-02T08:07:13.049Z,3.93
2018-08-02T08:09:47.752Z,3.30
2018-08-02T08:12:22.557Z,3.53
2018-08-02T08:14:57.684Z,3.97
2018-08-02T08:17:32.132Z,3.90
2018-08-02T08:20:06.552Z,3.70
2018-08-02T08:22:43.914Z,4.07
2018-08-02T08:25:19.707Z,3.80
2018-08-02T08:27:54.018Z,4.30
2018-08-02T08:30:28.765Z,4.57
2018-08-02T08:33:04.620Z,4.30
2018-08-02T08:35:38.794Z,4.30
2018-08-02T08:38:14.499Z,3.87
2018-08-02T08:40:48.843Z,5.20
2018-08-02T08:43:23.929Z,4.53
2018-08-02T08:45:58.000Z,4.90
2018-08-02T08:48:35.743Z,5.23
2018-08-02T08:51:11.076Z,5.10
2018-08-02T08:53:45.960Z,5.47
2018-08-02T08:56:20.239Z,4.97
2018-08-02T08:59:06.713Z,5.67
2018-08-02T09:01:44.441Z,5.40
2018-08-02T09:04:19.275Z,5.00
2018-08-02T09:06:53.908Z,5.03
2018-08-02T09:09:29.159Z,5.70
2018-08-02T09:12:04.251Z,4.90
2018-08-02T09:14:38.991Z,5.43
2018-08-02T09:17:14.181Z,4.60
2018-08-02T09:19:51.110Z,4.00
2018-08-02T09:22:25.950Z,5.50
2018-08-02T09:25:00.221Z,4.83
2018-08-02T09:27:35.585Z,4.27
2018-08-02T09:30:10.801Z,5.10
2018-08-02T09:32:45.992Z,5.17
2018-08-02T09:35:21.884Z,4.60
2018-08-02T09:37:56.682Z,5.77
2018-08-02T09:40:31.126Z,5.10
2018-08-02T09:43:05.728Z,5.87
2018-08-02T09:45:39.892Z,6.20
2018-08-02T09:48:14.161Z,5.90
2018-08-02T09:50:48.449Z,6.43
2018-08-02T09:53:22.808Z,6.63
2018-08-02T09:55:57.352Z,7.00
2018-08-02T09:58:31.651Z,6.43
2018-08-02T10:01:11.483Z,7.07
2018-08-02T10:03:45.810Z,7.43
2018-08-02T10:06:21.938Z,7.47
2018-08-02T10:08:56.753Z,7.80
2018-08-02T10:11:30.959Z,6.00
2018-08-02T10:14:06.520Z,6.87
2018-08-02T10:16:41.217Z,7.70
2018-08-02T10:19:15.513Z,6.90
2018-08-02T10:21:50.962Z,7.80
2018-08-02T10:24:26.149Z,7.70
2018-08-02T10:27:01.387Z,6.83
2018-08-02T10:29:36.814Z,7.10
2018-08-02T10:32:11.149Z,7.07
2018-08-02T10:34:46.065Z,6.77
2018-08-02T10:37:20.248Z,7.40
2018-08-02T10:39:55.247Z,8.30
2018-08-02T10:42:29.233Z,7.30
2018-08-02T10:45:04.612Z,8.03
2018-08-02T10:47:40.383Z,7.93
2018-08-02T10:50:15.405Z,7.50
2018-08-02T10:52:49.708Z,8.10
2018-08-02T10:55:25.157Z,8.20
2018-08-02T10:57:59.397Z,7.97
2018-08-02T11:00:33.788Z,7.80
2018-08-02T11:03:08.135Z,7.60
2018-08-02T11:05:43.752Z,6.53
2018-08-02T11:08:19.718Z,6.20
2018-08-02T11:10:54.063Z,7.57
2018-08-02T11:13:29.742Z,5.93
2018-08-02T11:16:04.748Z,7.10
2018-08-02T11:18:41.191Z,6.47
2018-08-02T11:21:17.907Z,6.40
2018-08-02T11:23:53.070Z,5.93
2018-08-02T11:26:31.245Z,5.70
2018-08-02T11:29:08.936Z,6.13
2018-08-02T11:31:44.018Z,5.73
2018-08-02T11:34:20.333Z,6.10
2018-08-02T11:36:55.683Z,5.80
2018-08-02T11:39:30.697Z,5.33
2018-08-02T11:42:04.992Z,5.60
2018-08-02T11:44:40.223Z,5.90
2018-08-02T11:47:14.362Z,4.87
2018-08-02T11:49:48.498Z,6.33
2018-08-02T11:52:23.473Z,6.67
2018-08-02T11:54:58.120Z,6.80
2018-08-02T11:57:32.591Z,6.10
2018-08-02T12:00:06.708Z,6.10
2018-08-02T12:02:41.109Z,6.10
2018-08-02T12:05:16.256Z,6.17
2018-08-02T12:07:56.078Z,7.03
2018-08-02T12:10:31.756Z,6.20
2018-08-02T12:13:06.054Z,6.13
2018-08-02T12:15:40.171Z,6.50
2018-08-02T12:18:14.413Z,6.10
2018-08-02T12:20:49.198Z,5.90
2018-08-02T12:23:23.492Z,5.93
2018-08-02T12:25:59.076Z,6.60
2018-08-02T12:28:33.380Z,5.40
2018-08-02T12:31:08.324Z,6.20
2018-08-02T12:33:42.432Z,6.03
2018-08-02T12:36:18.335Z,7.03
2018-08-02T12:38:54.149Z,5.83
2018-08-02T12:41:28.973Z,5.70
2018-08-02T12:44:04.566Z,5.27
2018-08-02T12:46:41.062Z,5.27
2018-08-02T12:49:16.328Z,5.70
2018-08-02T12:51:50.591Z,4.97
2018-08-02T12:54:26.441Z,5.50
2018-08-02T12:57:00.866Z,5.80
2018-08-02T12:59:36.675Z,5.30
2018-08-02T13:02:10.916Z,6.10
2018-08-02T13:04:45.202Z,5.43
2018-08-02T13:07:20.474Z,5.70
2018-08-02T13:09:56.817Z,6.27
2018-08-02T13:12:31.725Z,6.10
2018-08-02T13:15:06.287Z,4.77
2018-08-02T13:17:40.559Z,5.40
2018-08-02T13:20:14.841Z,5.53
2018-08-02T13:22:49.756Z,5.30
2018-08-02T13:25:24.584Z,4.20
2018-08-02T13:28:00.083Z,4.70
2018-08-02T13:30:34.699Z,4.50
2018-08-02T13:33:09.462Z,5.33
2018-08-02T13:35:43.772Z,5.77
2018-08-02T13:38:18.784Z,4.37
2018-08-02T13:40:53.132Z,4.10
2018-08-02T13:43:27.441Z,5.43
2018-08-02T13:46:02.296Z,5.00
2018-08-02T13:48:38.208Z,4.70
2018-08-02T13:51:12.481Z,4.50
2018-08-02T13:53:49.564Z,3.00
2018-08-02T13:56:24.456Z,4.80
2018-08-02T13:58:58.737Z,5.53
2018-08-02T14:01:35.653Z,5.00
2018-08-02T14:04:09.937Z,4.60
2018-08-02T14:06:45.702Z,4.20
2018-08-02T14:09:22.216Z,5.23
2018-08-02T14:11:57.008Z,4.50
2018-08-02T14:14:37.091Z,4.20
2018-08-02T14:17:13.450Z,4.30
2018-08-02T14:19:48.164Z,4.30
2018-08-02T14:22:23.480Z,4.17
2018-08-02T14:24:57.621Z,4.47
2018-08-02T14:27:32.535Z,4.50
2018-08-02T14:30:09.225Z,3.80
2018-08-02T14:32:44.962Z,4.00
2018-08-02T14:35:22.507Z,4.73
2018-08-02T14:37:59.600Z,3.93
2018-08-02T14:40:34.921Z,4.20
2018-08-02T14:43:09.584Z,4.90
2018-08-02T14:45:44.853Z,4.40
2018-08-02T14:48:20.757Z,3.67
2018-08-02T14:50:55.765Z,4.63
2018-08-02T14:53:30.706Z,4.53
2018-08-02T14:56:06.018Z,4.50
2018-08-02T14:58:43.247Z,4.30
2018-08-02T15:01:19.280Z,3.83
2018-08-02T15:03:54.975Z,4.33
2018-08-02T15:06:29.787Z,4.20
2018-08-02T15:09:08.453Z,4.00
2018-08-02T15:11:46.272Z,3.97
2018-08-02T15:14:21.249Z,4.33
2018-08-02T15:16:55.570Z,4.47
2018-08-02T15:19:30.436Z,4.57
2018-08-02T15:22:05.452Z,3.93
2018-08-02T15:24:39.719Z,4.57
2018-08-02T15:27:13.959Z,4.23
2018-08-02T15:29:48.740Z,4.10
2018-08-02T15:32:25.972Z,4.33
2018-08-02T15:35:00.920Z,4.20
2018-08-02T15:37:35.106Z,4.40
2018-08-02T15:40:09.520Z,3.50
2018-08-02T15:42:44.764Z,3.97
2018-08-02T15:45:19.581Z,4.23
2018-08-02T15:47:53.916Z,4.10
2018-08-02T15:50:28.242Z,4.57
2018-08-02T15:53:07.800Z,3.97
2018-08-02T15:55:46.753Z,4.53
2018-08-02T15:58:21.099Z,4.20
2018-08-02T16:00:56.044Z,4.60
2018-08-02T16:03:32.717Z,4.00
2018-08-02T16:06:07.797Z,4.00
2018-08-02T16:08:43.393Z,3.77
2018-08-02T16:11:18.556Z,3.80
2018-08-02T16:13:53.181Z,4.23
2018-08-02T16:16:27.488Z,4.03
2018-08-02T16:19:02.113Z,3.33
2018-08-02T16:21:36.926Z,3.60
2018-08-02T16:24:11.994Z,3.30
2018-08-02T16:26:46.599Z,3.47
2018-08-02T16:29:21.451Z,3.10
2018-08-02T16:31:57.615Z,3.50
2018-08-02T16:34:33.469Z,2.97
2018-08-02T16:37:07.655Z,3.20
2018-08-02T16:39:42.520Z,3.77
2018-08-02T16:42:18.280Z,3.30
2018-08-02T16:44:54.725Z,3.60
2018-08-02T16:47:32.096Z,3.57
2018-08-02T16:50:07.176Z,3.40
2018-08-02T16:52:41.386Z,3.13
2018-08-02T16:55:16.995Z,2.97
2018-08-02T16:57:52.643Z,3.73
2018-08-02T17:00:27.163Z,2.73
2018-08-02T17:03:01.432Z,3.00
2018-08-02T17:05:40.042Z,3.10
2018-08-02T17:08:16.505Z,3.10
2018-08-02T17:10:52.808Z,3.90
2018-08-02T17:13:28.430Z,3.33
2018-08-02T17:16:04.059Z,3.10
2018-08-02T17:18:41.047Z,3.57
2018-08-02T17:21:15.264Z,3.17
2018-08-02T17:23:49.857Z,3.30
2018-08-02T17:26:26.497Z,2.87
2018-08-02T17:29:03.459Z,2.70
2018-08-02T17:31:37.821Z,3.30
2018-08-02T17:34:14.109Z,3.20
2018-08-02T17:36:50.586Z,3.33
2018-08-02T17:39:26.055Z,2.80
2018-08-02T17:42:02.049Z,3.73
2018-08-02T17:44:43.384Z,3.50
2018-08-02T17:47:21.267Z,3.50
2018-08-02T17:49:56.547Z,3.70
2018-08-02T17:52:32.015Z,2.93
2018-08-02T17:55:07.577Z,3.70
2018-08-02T17:57:42.850Z,4.10
2018-08-02T18:00:19.175Z,3.40
2018-08-02T18:02:54.161Z,4.00
2018-08-02T18:05:29.500Z,4.03
2018-08-02T18:08:04.105Z,3.80
2018-08-02T18:10:40.582Z,4.07
2018-08-02T18:13:17.072Z,3.40
2018-08-02T18:15:51.260Z,4.30
2018-08-02T18:18:25.533Z,4.17
2018-08-02T18:21:01.105Z,4.00
2018-08-02T18:23:38.746Z,3.93
2018-08-02T18:26:15.152Z,3.90
2018-08-02T18:28:49.913Z,3.70
2018-08-02T18:34:29.076Z,4.87
2018-08-02T18:37:05.102Z,4.10
2018-08-02T18:39:42.112Z,4.37
2018-08-02T18:42:18.404Z,4.97
2018-08-02T18:44:53.245Z,3.90
2018-08-02T18:47:29.779Z,4.67
2018-08-02T18:50:06.832Z,4.40
2018-08-02T18:52:42.627Z,4.90
2018-08-02T18:55:20.506Z,4.73
2018-08-02T18:57:57.272Z,4.80
2018-08-02T19:00:40.445Z,5.70
2018-08-02T19:03:20.638Z,5.43
2018-08-02T19:06:05.462Z,5.60
2018-08-02T19:08:48.717Z,5.73
2018-08-02T19:11:24.894Z,5.60
2018-08-02T19:14:00.788Z,5.77
2018-08-02T19:16:36.916Z,5.90
2018-08-02T19:19:20.257Z,6.30
2018-08-02T19:21:57.180Z,6.47
2018-08-02T19:24:37.461Z,6.20
2018-08-02T19:27:17.641Z,7.37
2018-08-02T19:29:55.808Z,6.40
2018-08-02T19:32:30.880Z,7.03
2018-08-02T19:35:07.663Z,6.77
2018-08-02T19:37:42.070Z,6.60
2018-08-02T19:40:17.080Z,7.50
2018-08-02T19:42:52.040Z,7.10
2018-08-02T19:45:30.134Z,7.07
2018-08-02T19:48:08.002Z,6.60
2018-08-02T19:50:42.165Z,6.60
2018-08-02T19:53:16.733Z,6.70
2018-08-02T19:55:53.168Z,7.27
2018-08-02T19:58:30.861Z,7.27
2018-08-02T20:01:05.753Z,7.67
2018-08-02T20:03:41.930Z,6.77
2018-08-02T20:06:20.355Z,6.60
2018-08-02T20:08:55.962Z,6.70
2018-08-02T20:11:30.845Z,6.57
2018-08-02T20:14:06.873Z,7.10
2018-08-02T20:16:44.053Z,7.70
2018-08-02T20:19:21.899Z,7.70
2018-08-02T20:22:02.409Z,7.07
2018-08-02T20:24:37.127Z,7.10
2018-08-02T20:27:13.314Z,7.07
2018-08-02T20:29:48.006Z,7.33
2018-08-02T20:32:23.165Z,7.40
2018-08-02T20:35:00.984Z,7.30
2018-08-02T20:37:35.346Z,7.63
2018-08-02T20:40:11.756Z,8.00
2018-08-02T20:42:48.682Z,7.83
2018-08-02T20:45:27.792Z,7.70
2018-08-02T20:48:11.374Z,7.70
2018-08-02T20:50:49.308Z,8.23
2018-08-02T20:53:25.725Z,8.30
2018-08-02T20:56:01.709Z,8.10
2018-08-02T20:58:37.043Z,8.57
2018-08-02T21:01:18.271Z,8.10
2018-08-02T21:03:57.700Z,7.77
2018-08-02T21:06:35.113Z,8.20
2018-08-02T21:09:11.874Z,7.77
2018-08-02T21:11:47.908Z,7.23
2018-08-02T21:14:24.272Z,7.57
2018-08-02T21:17:01.619Z,7.40
2018-08-02T21:19:38.892Z,7.10
2018-08-02T21:22:21.071Z,7.73
2018-08-02T21:24:57.008Z,7.85
2018-08-02T21:27:31.776Z,6.33
2018-08-02T21:30:07.500Z,7.40
2018-08-02T21:32:41.788Z,7.20
2018-08-02T21:35:16.924Z,7.13
2018-08-02T21:37:51.397Z,7.70
2018-08-02T21:40:25.710Z,7.20
2018-08-02T21:43:00.295Z,6.97
2018-08-02T21:45:34.513Z,8.23
2018-08-02T21:48:09.547Z,7.30
2018-08-02T21:50:44.185Z,7.10
2018-08-02T21:53:18.542Z,6.83
2018-08-02T21:55:56.840Z,8.47
2018-08-02T21:58:32.244Z,7.40
2018-08-02T22:01:06.505Z,7.07
2018-08-02T22:03:41.553Z,6.90
2018-08-02T22:06:18.799Z,7.20
2018-08-02T22:08:53.764Z,7.90
2018-08-02T22:11:33.952Z,7.67
2018-08-02T22:14:15.259Z,6.97
2018-08-02T22:16:50.066Z,7.40
2018-08-02T22:19:24.250Z,6.93
2018-08-02T22:21:59.261Z,7.40
2018-08-02T22:24:37.243Z,8.10
2018-08-02T22:27:14.489Z,8.90
2018-08-02T22:29:49.231Z,8.40
2018-08-02T22:32:23.629Z,7.50
2018-08-02T22:34:58.882Z,8.20
2018-08-02T22:37:33.110Z,7.00
2018-08-02T22:40:07.585Z,7.30
2018-08-02T22:42:42.493Z,7.80
2018-08-02T22:45:17.133Z,7.43
2018-08-02T22:47:52.096Z,7.97
2018-08-02T22:50:27.625Z,8.23
2018-08-02T22:53:01.921Z,8.50
2018-08-02T22:55:36.451Z,7.40
2018-08-02T22:58:10.863Z,6.60
2018-08-02T23:00:45.645Z,7.77
2018-08-02T23:03:20.794Z,7.90
2018-08-02T23:05:55.487Z,7.70
2018-08-02T23:08:30.845Z,7.17
2018-08-02T23:11:06.412Z,7.30
2018-08-02T23:13:41.317Z,7.43
2018-08-02T23:16:16.168Z,8.23
2018-08-02T23:18:50.556Z,7.17
2018-08-02T23:21:25.959Z,7.37
2018-08-02T23:24:03.763Z,6.97
2018-08-02T23:26:42.567Z,7.47
2018-08-02T23:29:17.134Z,7.40
2018-08-02T23:31:52.061Z,8.63
2018-08-02T23:34:27.840Z,8.17
2018-08-02T23:37:03.287Z,7.90
2018-08-02T23:39:41.082Z,8.57
2018-08-02T23:42:15.668Z,8.00
2018-08-02T23:44:50.095Z,7.47
2018-08-02T23:47:24.895Z,8.50
2018-08-02T23:50:01.371Z,9.03
2018-08-02T23:52:37.038Z,7.63
2018-08-02T23:55:12.771Z,7.90
2018-08-02T23:57:48.218Z,7.70
